createdAt,value
2019-06-27T00:02:31.668Z,18.67
2019-06-27T00:05:02.595Z,21.17
2019-06-27T00:07:34.701Z,25.13
2019-06-27T00:10:04.627Z,21.37
2019-06-27T00:12:33.728Z,22.87
2019-06-27T00:15:04.586Z,19.80
2019-06-27T00:17:35.708Z,21.13
2019-06-27T00:20:04.957Z,19.10
2019-06-27T00:22:41.072Z,25.37
2019-06-27T00:25:07.671Z,26.07
2019-06-27T00:27:37.962Z,21.07
2019-06-27T00:30:08.630Z,22.47
2019-06-27T00:32:40.561Z,23.33
2019-06-27T00:35:11.326Z,21.37
2019-06-27T00:37:45.199Z,21.50
2019-06-27T00:40:18.402Z,20.77
2019-06-27T00:42:47.525Z,19.67
2019-06-27T00:45:21.397Z,20.00
2019-06-27T00:47:54.016Z,19.30
2019-06-27T00:50:23.287Z,19.37
2019-06-27T00:52:52.392Z,23.30
2019-06-27T00:55:21.542Z,25.20
2019-06-27T00:57:50.640Z,21.67
2019-06-27T01:00:21.355Z,21.83
2019-06-27T01:02:50.513Z,22.63
2019-06-27T01:05:19.657Z,21.57
2019-06-27T01:07:48.783Z,22.93
2019-06-27T01:10:18.801Z,23.43
2019-06-27T01:12:48.871Z,27.70
2019-06-27T01:15:18.171Z,29.03
2019-06-27T01:17:47.333Z,19.67
2019-06-27T01:20:18.229Z,19.63
2019-06-27T01:22:48.969Z,17.63
2019-06-27T01:25:19.101Z,20.10
2019-06-27T01:27:48.206Z,22.30
2019-06-27T01:30:20.092Z,20.47
2019-06-27T01:32:54.378Z,20.73
2019-06-27T01:35:23.518Z,23.20
2019-06-27T01:37:52.606Z,19.43
2019-06-27T01:40:21.779Z,19.67
2019-06-27T01:42:52.226Z,21.47
2019-06-27T01:45:36.991Z,22.07
2019-06-27T01:48:06.129Z,21.00
2019-06-27T01:50:37.045Z,24.13
2019-06-27T01:53:07.259Z,21.30
2019-06-27T01:55:39.022Z,22.70
2019-06-27T01:58:09.389Z,20.80
2019-06-27T02:00:40.163Z,21.43
2019-06-27T02:03:11.179Z,21.87
2019-06-27T02:05:42.081Z,23.40
2019-06-27T02:08:11.192Z,22.57
2019-06-27T02:10:41.694Z,29.73
2019-06-27T02:13:11.023Z,20.60
2019-06-27T02:15:43.296Z,23.23
2019-06-27T02:18:12.433Z,22.17
2019-06-27T02:20:41.544Z,19.67
2019-06-27T02:23:10.715Z,21.87
2019-06-27T02:25:39.900Z,22.00
2019-06-27T02:28:09.041Z,21.40
2019-06-27T02:30:50.695Z,24.57
2019-06-27T02:33:19.844Z,20.60
2019-06-27T02:35:50.326Z,21.87
2019-06-27T02:38:23.565Z,24.27
2019-06-27T02:40:58.738Z,19.90
2019-06-27T02:43:30.067Z,19.80
2019-06-27T02:45:59.249Z,25.63
2019-06-27T02:48:32.966Z,22.20
2019-06-27T02:51:02.195Z,21.90
2019-06-27T02:53:33.273Z,27.93
2019-06-27T02:56:02.380Z,21.97
2019-06-27T02:58:33.048Z,25.90
2019-06-27T03:01:02.438Z,24.67
2019-06-27T03:03:33.827Z,26.00
2019-06-27T03:06:04.866Z,23.00
2019-06-27T03:08:34.062Z,23.50
2019-06-27T03:11:07.106Z,22.30
2019-06-27T03:13:40.647Z,19.33
2019-06-27T03:16:10.285Z,23.30
2019-06-27T03:18:39.828Z,25.10
2019-06-27T03:21:08.986Z,22.17
2019-06-27T03:23:38.100Z,24.30
2019-06-27T03:26:07.232Z,24.93
2019-06-27T03:28:51.851Z,24.10
2019-06-27T03:31:09.303Z,22.80
2019-06-27T03:33:40.286Z,21.67
2019-06-27T03:36:09.428Z,25.50
2019-06-27T03:38:38.768Z,27.23
2019-06-27T03:41:08.159Z,22.90
2019-06-27T03:43:41.274Z,22.20
2019-06-27T03:46:10.762Z,23.53
2019-06-27T03:48:39.886Z,23.40
2019-06-27T03:51:12.480Z,25.57
2019-06-27T03:53:41.689Z,23.40
2019-06-27T03:56:13.181Z,27.10
2019-06-27T03:58:44.134Z,27.43
2019-06-27T04:01:14.450Z,24.07
2019-06-27T04:03:46.804Z,27.87
2019-06-27T04:06:16.000Z,22.60
2019-06-27T04:08:45.129Z,23.63
2019-06-27T04:11:17.114Z,23.50
2019-06-27T04:13:50.243Z,26.43
2019-06-27T04:16:21.332Z,30.07
2019-06-27T04:18:52.765Z,26.17
2019-06-27T04:21:25.348Z,26.60
2019-06-27T04:23:54.606Z,29.33
2019-06-27T04:26:25.008Z,27.97
2019-06-27T04:28:55.816Z,26.10
2019-06-27T04:31:26.842Z,27.83
2019-06-27T04:33:55.972Z,27.57
2019-06-27T04:36:29.096Z,29.43
2019-06-27T04:38:59.339Z,30.83
2019-06-27T04:41:30.124Z,27.13
2019-06-27T04:44:02.004Z,26.50
2019-06-27T04:46:31.343Z,24.10
2019-06-27T04:49:05.097Z,22.30
2019-06-27T04:51:34.572Z,25.67
2019-06-27T04:54:06.199Z,21.87
2019-06-27T04:56:38.006Z,25.47
2019-06-27T04:59:07.290Z,23.03
2019-06-27T05:01:39.149Z,24.70
2019-06-27T05:04:11.446Z,21.45
2019-06-27T05:06:40.623Z,20.97
2019-06-27T05:09:10.952Z,25.67
2019-06-27T05:11:40.538Z,24.37
2019-06-27T05:14:09.669Z,24.20
2019-06-27T05:16:38.762Z,23.10
2019-06-27T05:19:08.315Z,22.67
2019-06-27T05:21:45.787Z,31.10
2019-06-27T05:24:16.328Z,24.00
2019-06-27T05:26:45.432Z,25.37
2019-06-27T05:29:16.355Z,22.97
2019-06-27T05:31:52.801Z,29.23
2019-06-27T05:34:26.632Z,21.73
2019-06-27T05:36:58.670Z,25.17
2019-06-27T05:39:35.303Z,31.33
2019-06-27T05:42:04.836Z,25.23
2019-06-27T05:44:38.595Z,23.00
2019-06-27T05:47:10.796Z,23.00
2019-06-27T05:49:46.810Z,26.83
2019-06-27T05:52:16.349Z,22.53
2019-06-27T05:54:48.803Z,28.10
2019-06-27T05:57:19.184Z,24.87
2019-06-27T05:59:56.944Z,23.83
2019-06-27T06:02:27.305Z,24.77
2019-06-27T06:05:00.222Z,30.30
2019-06-27T06:07:31.045Z,23.73
2019-06-27T06:10:00.209Z,22.73
2019-06-27T06:12:29.313Z,25.90
2019-06-27T06:14:58.451Z,26.90
2019-06-27T06:17:29.957Z,24.90
2019-06-27T06:20:09.806Z,27.47
2019-06-27T06:22:45.680Z,29.17
2019-06-27T06:25:15.965Z,23.47
2019-06-27T06:27:47.972Z,25.10
2019-06-27T06:30:17.944Z,24.30
2019-06-27T06:32:47.049Z,27.47
2019-06-27T06:35:17.721Z,23.00
2019-06-27T06:37:46.916Z,28.80
2019-06-27T06:40:16.709Z,27.50
2019-06-27T06:42:48.791Z,25.40
2019-06-27T06:45:17.943Z,24.43
2019-06-27T06:47:47.965Z,30.57
2019-06-27T06:50:17.696Z,30.47
2019-06-27T06:52:47.058Z,27.20
2019-06-27T06:55:21.044Z,25.70
2019-06-27T06:57:51.739Z,22.83
2019-06-27T07:00:22.589Z,25.97
2019-06-27T07:02:53.873Z,26.37
2019-06-27T07:05:27.779Z,27.13
2019-06-27T07:07:59.178Z,27.33
2019-06-27T07:10:31.560Z,31.67
2019-06-27T07:13:05.428Z,26.37
2019-06-27T07:15:37.707Z,26.17
2019-06-27T07:18:07.600Z,27.27
2019-06-27T07:20:37.503Z,26.50
2019-06-27T07:23:11.783Z,29.60
2019-06-27T07:25:46.290Z,27.23
2019-06-27T07:28:15.440Z,26.60
2019-06-27T07:30:47.071Z,28.50
2019-06-27T07:33:16.564Z,30.63
2019-06-27T07:35:51.185Z,27.43
2019-06-27T07:38:21.564Z,25.93
2019-06-27T07:40:51.693Z,28.60
2019-06-27T07:43:20.810Z,27.87
2019-06-27T07:45:53.901Z,27.43
2019-06-27T07:48:23.177Z,29.73
2019-06-27T07:51:01.545Z,28.50
2019-06-27T07:53:30.806Z,28.90
2019-06-27T07:56:01.561Z,29.00
2019-06-27T07:58:30.758Z,28.50
2019-06-27T08:01:00.661Z,26.93
2019-06-27T08:03:29.858Z,28.97
2019-06-27T08:06:00.243Z,30.77
2019-06-27T08:08:33.670Z,32.40
2019-06-27T08:11:06.190Z,27.70
2019-06-27T08:13:36.450Z,26.67
2019-06-27T08:16:05.538Z,30.33
2019-06-27T08:18:34.721Z,31.00
2019-06-27T08:21:13.274Z,30.23
2019-06-27T08:23:44.340Z,29.70
2019-06-27T08:26:13.747Z,30.13
2019-06-27T08:28:45.858Z,30.53
2019-06-27T08:31:17.701Z,28.10
2019-06-27T08:33:47.165Z,29.43
2019-06-27T08:36:18.591Z,30.30
2019-06-27T08:38:48.055Z,28.27
2019-06-27T08:41:17.196Z,27.83
2019-06-27T08:43:49.029Z,24.37
2019-06-27T08:46:20.676Z,31.00
2019-06-27T08:48:55.329Z,31.97
2019-06-27T08:51:24.460Z,29.90
2019-06-27T08:53:56.670Z,25.67
2019-06-27T08:56:37.049Z,25.67
2019-06-27T08:59:11.239Z,29.17
2019-06-27T09:02:07.844Z,27.27
2019-06-27T09:04:27.558Z,28.43
2019-06-27T09:06:58.743Z,26.67
2019-06-27T09:09:31.876Z,26.17
2019-06-27T09:12:04.355Z,31.90
2019-06-27T09:14:33.542Z,29.77
2019-06-27T09:17:04.542Z,28.27
2019-06-27T09:19:36.588Z,31.67
2019-06-27T09:22:05.758Z,31.33
2019-06-27T09:24:38.787Z,27.83
2019-06-27T09:27:08.101Z,37.90
2019-06-27T09:29:37.367Z,25.80
2019-06-27T09:32:06.952Z,27.20
2019-06-27T09:34:36.097Z,30.17
2019-06-27T09:37:10.097Z,26.57
2019-06-27T09:39:43.165Z,26.60
2019-06-27T09:42:12.404Z,24.03
2019-06-27T09:44:42.353Z,30.30
2019-06-27T09:47:13.670Z,23.73
2019-06-27T09:49:45.305Z,27.07
2019-06-27T09:52:14.517Z,29.83
2019-06-27T09:54:43.777Z,24.00
2019-06-27T09:57:12.885Z,21.87
2019-06-27T09:59:43.176Z,22.43
2019-06-27T10:02:17.092Z,25.97
2019-06-27T10:04:46.215Z,25.93
2019-06-27T10:07:15.648Z,22.53
2019-06-27T10:09:53.899Z,27.57
2019-06-27T10:12:23.030Z,24.70
2019-06-27T10:14:52.505Z,24.10
2019-06-27T10:17:24.026Z,25.13
2019-06-27T10:19:54.800Z,22.00
2019-06-27T10:22:28.763Z,24.43
2019-06-27T10:24:58.645Z,24.17
2019-06-27T10:27:34.146Z,24.33
2019-06-27T10:30:04.698Z,25.13
2019-06-27T10:32:39.538Z,22.87
2019-06-27T10:35:10.012Z,24.63
2019-06-27T10:37:42.090Z,24.30
2019-06-27T10:40:18.241Z,19.93
2019-06-27T10:42:49.500Z,18.42
2019-06-27T10:45:25.309Z,20.02
2019-06-27T10:47:56.910Z,22.00
2019-06-27T10:50:29.156Z,18.43
2019-06-27T10:52:58.283Z,19.80
2019-06-27T10:55:28.647Z,18.03
2019-06-27T10:57:58.115Z,17.62
2019-06-27T11:00:28.513Z,18.90
2019-06-27T11:03:14.382Z,17.82
2019-06-27T11:05:32.823Z,17.52
2019-06-27T11:08:05.103Z,19.20
2019-06-27T11:10:37.370Z,20.15
2019-06-27T11:13:06.522Z,16.52
2019-06-27T11:15:35.614Z,15.80
2019-06-27T11:18:05.066Z,20.08
2019-06-27T11:20:35.083Z,15.35
2019-06-27T11:23:05.869Z,13.73
2019-06-27T11:25:35.032Z,16.62
2019-06-27T11:28:05.893Z,17.92
2019-06-27T11:30:39.892Z,23.12
2019-06-27T11:33:31.339Z,18.10
2019-06-27T11:35:47.923Z,19.07
2019-06-27T11:38:17.191Z,21.45
2019-06-27T11:40:48.731Z,16.37
2019-06-27T11:43:24.135Z,19.12
2019-06-27T11:45:53.347Z,20.32
2019-06-27T11:48:23.400Z,19.37
2019-06-27T11:50:54.383Z,19.23
2019-06-27T11:53:23.802Z,17.82
2019-06-27T11:55:58.444Z,21.95
2019-06-27T11:58:30.086Z,18.37
2019-06-27T12:01:00.236Z,16.45
2019-06-27T12:03:29.915Z,19.25
2019-06-27T12:05:59.207Z,18.10
2019-06-27T12:08:29.421Z,21.85
2019-06-27T12:10:58.648Z,22.10
2019-06-27T12:13:32.863Z,21.12
2019-06-27T12:16:06.999Z,15.93
2019-06-27T12:18:42.976Z,18.00
2019-06-27T12:21:14.941Z,17.27
2019-06-27T12:23:50.282Z,19.57
2019-06-27T12:26:19.685Z,17.02
2019-06-27T12:28:49.370Z,17.12
2019-06-27T12:31:21.014Z,17.48
2019-06-27T12:34:05.744Z,19.57
2019-06-27T12:36:22.465Z,19.90
2019-06-27T12:38:54.714Z,17.98
2019-06-27T12:41:25.890Z,18.30
2019-06-27T12:43:59.790Z,16.93
2019-06-27T12:46:30.033Z,18.77
2019-06-27T12:48:59.698Z,19.65
2019-06-27T12:51:36.260Z,18.75
2019-06-27T12:54:08.526Z,19.62
2019-06-27T12:56:41.164Z,19.32
2019-06-27T12:59:12.145Z,17.70
2019-06-27T13:01:41.354Z,18.75
2019-06-27T13:04:22.977Z,18.02
2019-06-27T13:06:54.433Z,21.80
2019-06-27T13:09:24.551Z,16.15
2019-06-27T13:11:55.704Z,20.75
2019-06-27T13:14:24.822Z,18.92
2019-06-27T13:16:58.157Z,18.65
2019-06-27T13:19:30.956Z,20.08
2019-06-27T13:22:01.681Z,21.87
2019-06-27T13:24:31.990Z,22.02
2019-06-27T13:27:04.106Z,19.65
2019-06-27T13:29:33.811Z,20.48
2019-06-27T13:32:03.038Z,21.07
2019-06-27T13:34:40.249Z,21.77
2019-06-27T13:37:03.164Z,23.50
2019-06-27T13:39:33.279Z,20.50
2019-06-27T13:42:03.554Z,21.62
2019-06-27T13:44:36.996Z,21.95
2019-06-27T13:47:09.020Z,17.48
2019-06-27T13:49:38.519Z,21.05
2019-06-27T13:52:07.988Z,21.05
2019-06-27T13:54:39.278Z,20.55
2019-06-27T13:57:09.068Z,22.45
2019-06-27T13:59:40.737Z,19.15
2019-06-27T14:02:11.020Z,19.62
2019-06-27T14:04:52.939Z,22.77
2019-06-27T14:07:10.921Z,19.15
2019-06-27T14:09:51.422Z,19.60
2019-06-27T14:12:11.718Z,22.60
2019-06-27T14:14:58.779Z,18.62
2019-06-27T14:17:15.667Z,19.62
2019-06-27T14:19:50.572Z,19.40
2019-06-27T14:22:32.942Z,20.37
2019-06-27T14:24:53.576Z,17.57
2019-06-27T14:27:26.537Z,16.57
2019-06-27T14:29:56.759Z,17.15
2019-06-27T14:32:33.115Z,18.30
2019-06-27T14:35:14.625Z,25.62
2019-06-27T14:37:33.806Z,16.35
2019-06-27T14:40:07.362Z,17.00
2019-06-27T14:42:37.073Z,19.92
2019-06-27T14:45:08.877Z,14.73
2019-06-27T14:47:39.838Z,15.08
2019-06-27T14:50:10.919Z,15.90
2019-06-27T14:52:40.039Z,16.40
2019-06-27T14:55:15.894Z,16.30
2019-06-27T14:57:45.358Z,14.65
2019-06-27T15:00:21.886Z,16.45
2019-06-27T15:02:53.442Z,17.02
2019-06-27T15:05:32.610Z,15.93
2019-06-27T15:07:55.864Z,16.52
2019-06-27T15:10:28.774Z,14.80
2019-06-27T15:13:03.820Z,14.00
2019-06-27T15:15:37.883Z,15.35
2019-06-27T15:18:07.768Z,15.60
2019-06-27T15:20:37.382Z,15.48
2019-06-27T15:23:11.102Z,16.50
2019-06-27T15:25:43.259Z,13.25
2019-06-27T15:28:12.876Z,13.05
2019-06-27T15:30:43.739Z,15.65
2019-06-27T15:33:17.303Z,15.55
2019-06-27T15:35:52.364Z,13.50
2019-06-27T15:38:24.581Z,14.90
2019-06-27T15:40:55.417Z,14.18
2019-06-27T15:43:27.150Z,15.80
2019-06-27T15:45:56.285Z,16.97
2019-06-27T15:48:25.755Z,14.07
2019-06-27T15:50:56.799Z,10.98
2019-06-27T15:53:25.901Z,12.13
2019-06-27T15:55:55.272Z,12.63
2019-06-27T15:58:28.324Z,13.78
2019-06-27T16:01:06.558Z,15.40
2019-06-27T16:03:35.789Z,10.45
2019-06-27T16:06:10.251Z,15.43
2019-06-27T16:08:36.782Z,9.23
2019-06-27T16:11:05.914Z,11.40
2019-06-27T16:13:35.220Z,11.95
2019-06-27T16:16:05.822Z,10.38
2019-06-27T16:18:48.982Z,9.63
2019-06-27T16:21:20.921Z,9.23
2019-06-27T16:23:52.942Z,10.23
2019-06-27T16:26:25.448Z,11.28
2019-06-27T16:28:55.194Z,9.80
2019-06-27T16:31:28.440Z,11.65
2019-06-27T16:33:57.545Z,9.88
2019-06-27T16:36:26.691Z,9.78
2019-06-27T16:38:55.823Z,11.87
2019-06-27T16:41:26.185Z,10.93
2019-06-27T16:44:03.724Z,10.50
2019-06-27T16:46:34.078Z,9.48
2019-06-27T16:49:04.928Z,9.90
2019-06-27T16:51:34.025Z,9.08
2019-06-27T16:54:04.927Z,17.92
2019-06-27T16:56:34.063Z,11.65
2019-06-27T16:59:05.052Z,9.98
2019-06-27T17:01:34.189Z,10.35
2019-06-27T17:04:05.623Z,9.65
2019-06-27T17:06:41.980Z,9.30
2019-06-27T17:09:09.217Z,9.33
2019-06-27T17:11:38.438Z,8.38
2019-06-27T17:14:07.526Z,11.95
2019-06-27T17:16:36.701Z,14.23
2019-06-27T17:19:08.664Z,10.50
2019-06-27T17:21:39.056Z,7.63
2019-06-27T17:24:13.419Z,7.57
2019-06-27T17:26:47.027Z,6.77
2019-06-27T17:29:18.566Z,6.47
2019-06-27T17:31:47.890Z,6.40
2019-06-27T17:34:16.997Z,6.10
2019-06-27T17:36:56.974Z,6.97
2019-06-27T17:39:18.009Z,4.83
2019-06-27T17:41:47.182Z,5.37
2019-06-27T17:44:19.985Z,5.07
2019-06-27T17:46:47.482Z,5.33
2019-06-27T17:49:23.049Z,6.43
2019-06-27T17:52:00.137Z,5.20
2019-06-27T17:54:38.156Z,3.80
2019-06-27T17:57:10.240Z,4.23
2019-06-27T17:59:39.465Z,4.03
2019-06-27T18:02:10.563Z,4.37
2019-06-27T18:04:39.672Z,4.33
2019-06-27T18:07:14.077Z,4.40
2019-06-27T18:09:42.671Z,6.57
2019-06-27T18:12:11.904Z,4.10
2019-06-27T18:14:42.819Z,4.30
2019-06-27T18:17:14.751Z,5.60
2019-06-27T18:19:48.770Z,7.00
2019-06-27T18:22:25.485Z,4.40
2019-06-27T18:25:03.810Z,4.00
2019-06-27T18:27:35.262Z,5.67
2019-06-27T18:30:04.381Z,3.80
2019-06-27T18:32:33.798Z,5.37
2019-06-27T18:35:03.686Z,3.73
2019-06-27T18:37:35.223Z,4.50
2019-06-27T18:40:08.897Z,3.23
2019-06-27T18:42:41.395Z,4.20
2019-06-27T18:45:17.560Z,3.50
2019-06-27T18:47:46.789Z,3.00
2019-06-27T18:50:16.784Z,3.10
2019-06-27T18:52:47.235Z,2.63
2019-06-27T18:55:20.825Z,2.80
2019-06-27T18:57:49.993Z,3.43
2019-06-27T19:00:21.846Z,2.30
2019-06-27T19:02:51.169Z,2.97
2019-06-27T19:05:21.762Z,4.20
2019-06-27T19:07:52.914Z,3.35
2019-06-27T19:10:31.253Z,3.60
2019-06-27T19:13:00.446Z,2.37
2019-06-27T19:15:30.947Z,2.60
2019-06-27T19:18:04.407Z,3.57
2019-06-27T19:20:42.331Z,3.30
2019-06-27T19:23:39.172Z,2.30
2019-06-27T19:26:08.441Z,6.73
2019-06-27T19:28:38.621Z,2.93
2019-06-27T19:31:10.787Z,2.70
2019-06-27T19:33:40.220Z,3.53
2019-06-27T19:36:12.201Z,3.00
2019-06-27T19:38:47.726Z,3.40
2019-06-27T19:41:16.856Z,3.43
2019-06-27T19:43:46.183Z,2.83
2019-06-27T19:46:15.283Z,2.90
2019-06-27T19:48:45.738Z,2.83
2019-06-27T19:51:16.717Z,3.50
2019-06-27T19:53:47.450Z,3.67
2019-06-27T19:56:17.446Z,3.00
2019-06-27T19:58:46.580Z,2.50
2019-06-27T20:01:15.744Z,2.60
2019-06-27T20:03:45.165Z,2.67
2019-06-27T20:06:17.205Z,3.40
2019-06-27T20:08:48.763Z,2.43
2019-06-27T20:11:17.902Z,2.90
2019-06-27T20:13:47.111Z,3.10
2019-06-27T20:16:16.458Z,2.50
2019-06-27T20:18:45.694Z,3.70
2019-06-27T20:21:16.690Z,2.80
2019-06-27T20:23:46.615Z,2.33
2019-06-27T20:26:18.680Z,2.63
2019-06-27T20:28:51.286Z,4.07
2019-06-27T20:31:20.950Z,2.57
2019-06-27T20:33:50.284Z,3.53
2019-06-27T20:36:20.411Z,3.83
2019-06-27T20:38:49.565Z,3.00
2019-06-27T20:41:18.990Z,2.50
2019-06-27T20:43:53.093Z,2.57
2019-06-27T20:46:22.568Z,3.27
2019-06-27T20:48:54.118Z,2.00
2019-06-27T20:51:30.348Z,2.70
2019-06-27T20:54:03.528Z,2.30
2019-06-27T20:56:32.947Z,2.53
2019-06-27T20:59:02.067Z,5.40
2019-06-27T21:01:31.899Z,3.17
2019-06-27T21:04:01.133Z,4.03
2019-06-27T21:06:33.150Z,2.20
2019-06-27T21:09:02.257Z,2.50
2019-06-27T21:11:31.354Z,4.40
2019-06-27T21:14:00.469Z,2.97
2019-06-27T21:16:29.690Z,3.40
2019-06-27T21:19:01.654Z,3.80
2019-06-27T21:21:30.955Z,2.50
2019-06-27T21:24:01.807Z,3.23
2019-06-27T21:26:32.556Z,2.90
2019-06-27T21:29:01.666Z,2.37
2019-06-27T21:31:30.768Z,3.30
2019-06-27T21:34:02.694Z,3.07
2019-06-27T21:36:31.876Z,2.70
2019-06-27T21:39:07.570Z,2.53
2019-06-27T21:41:35.465Z,2.67
2019-06-27T21:44:06.900Z,3.77
2019-06-27T21:46:37.160Z,4.70
2019-06-27T21:49:06.288Z,3.20
2019-06-27T21:51:35.710Z,4.87
2019-06-27T21:54:04.822Z,2.40
2019-06-27T21:56:36.427Z,3.10
2019-06-27T21:59:05.944Z,3.10
2019-06-27T22:01:35.728Z,2.33
2019-06-27T22:04:05.059Z,2.70
2019-06-27T22:06:36.654Z,3.73
2019-06-27T22:09:24.142Z,3.50
2019-06-27T22:11:44.065Z,3.93
2019-06-27T22:14:14.084Z,2.87
2019-06-27T22:16:45.067Z,3.20
2019-06-27T22:19:16.105Z,2.80
2019-06-27T22:21:46.063Z,3.03
2019-06-27T22:24:16.686Z,3.70
2019-06-27T22:26:46.162Z,2.90
2019-06-27T22:29:18.633Z,3.60
2019-06-27T22:31:51.879Z,2.70
2019-06-27T22:34:25.268Z,4.23
2019-06-27T22:37:03.480Z,2.80
2019-06-27T22:39:53.383Z,2.90
2019-06-27T22:42:41.466Z,3.20
2019-06-27T22:45:28.451Z,4.10
2019-06-27T22:48:12.603Z,3.30
2019-06-27T22:51:12.772Z,4.63
2019-06-27T22:53:56.092Z,2.53
2019-06-27T22:56:28.273Z,2.80
2019-06-27T22:58:59.231Z,3.80
2019-06-27T23:01:29.086Z,4.20
2019-06-27T23:03:59.928Z,2.70
2019-06-27T23:06:30.791Z,3.90
2019-06-27T23:09:04.077Z,3.63
2019-06-27T23:11:36.471Z,2.87
2019-06-27T23:14:10.965Z,4.33
2019-06-27T23:16:44.680Z,2.83
2019-06-27T23:19:14.904Z,3.27
2019-06-27T23:21:46.527Z,3.07
2019-06-27T23:24:16.957Z,3.83
2019-06-27T23:26:46.103Z,3.87
2019-06-27T23:29:18.717Z,4.00
2019-06-27T23:31:51.769Z,3.83
2019-06-27T23:34:20.962Z,2.93
2019-06-27T23:36:51.138Z,2.70
2019-06-27T23:39:21.079Z,5.50
2019-06-27T23:41:51.359Z,3.10
2019-06-27T23:44:20.535Z,5.10
2019-06-27T23:46:53.370Z,2.87
2019-06-27T23:49:26.157Z,3.57
2019-06-27T23:51:58.313Z,3.53
2019-06-27T23:54:28.721Z,3.10
2019-06-27T23:56:57.812Z,5.17
2019-06-27T23:59:28.324Z,4.40
